KCNK/CNK METAR and TAF weather

Enter ICAO airport designator
Station Type Date Time Source
KCNK METAR 2018/01/16 08:55 UTC NOAA

KCNK 160855Z AUTO 32010KT 10SM CLR M18/M22 A3073 RMK AO2 SLP442 T11781222 53003


Station Type Date Time Source
KCNK Decoded METAR 2018/01/16 08:55 UTC NOAA

Concordia, Blosser Municipal Airport, KS, United States (KCNK) 39-33-05N 097-39-02W 447M
Jan 16, 2018 - 03:55 AM EST / 2018.01.16 0855 UTC
Wind: from the NW (320 degrees) at 12 MPH (10 KT):0
Visibility: 10 mile(s):0
Sky conditions: clear
Temperature: -0.0 F (-17.8 C)
Windchill: -16 F (-27 C):2
Dew Point: -8.0 F (-22.2 C)
Relative Humidity: 68%
Pressure (altimeter): 30.73 in. Hg (1040 hPa)
Pressure tendency: 0.01 inches (0.3 hPa) higher than three hours ago
ob: KCNK 160855Z AUTO 32010KT 10SM CLR M18/M22 A3073 RMK AO2 SLP442 T11781222 53003
cycle: 9

Station Type Date Time Source
KCNK TAF UTC NOAA

Error!


Example: see airport list